createdAt,value
2018-11-21T00:04:49.798Z,37.13
2018-11-21T00:10:53.226Z,36.73
2018-11-21T00:16:56.659Z,39.33
2018-11-21T00:23:00.094Z,40.27
2018-11-21T00:29:06.415Z,38.70
2018-11-21T00:35:10.406Z,37.77
2018-11-21T00:41:13.846Z,36.87
2018-11-21T00:47:20.227Z,39.93
2018-11-21T00:53:23.998Z,39.53
2018-11-21T00:59:27.548Z,41.53
2018-11-21T01:05:33.374Z,37.93
2018-11-21T01:11:34.372Z,41.47
2018-11-21T01:17:37.911Z,44.87
2018-11-21T01:23:41.359Z,51.00
2018-11-21T01:29:44.811Z,62.07
2018-11-21T01:35:48.271Z,41.87
2018-11-21T01:41:51.739Z,33.83
2018-11-21T01:47:55.167Z,52.20
2018-11-21T01:54:01.253Z,57.67
2018-11-21T02:00:06.975Z,43.03
2018-11-21T02:06:08.790Z,43.67
2018-11-21T02:12:12.233Z,41.23
2018-11-21T02:18:15.912Z,40.77
2018-11-21T02:24:22.935Z,40.17
2018-11-21T02:30:25.483Z,59.40
2018-11-21T02:36:29.505Z,37.90
2018-11-21T02:42:33.327Z,37.67
2018-11-21T02:48:37.051Z,40.77
2018-11-21T02:54:40.494Z,40.77
2018-11-21T03:00:43.927Z,41.47
2018-11-21T03:06:47.361Z,43.03
2018-11-21T03:12:50.965Z,43.60
2018-11-21T03:18:54.376Z,43.07
2018-11-21T03:24:57.812Z,40.37
2018-11-21T03:31:01.269Z,40.43
2018-11-21T03:37:04.889Z,40.20
2018-11-21T03:43:08.306Z,43.20
2018-11-21T03:49:11.749Z,44.10
2018-11-21T03:55:15.471Z,43.47
2018-11-21T04:01:18.890Z,43.30
2018-11-21T04:07:22.319Z,43.13
2018-11-21T04:13:26.352Z,49.33
2018-11-21T04:19:30.467Z,45.97
2018-11-21T04:25:34.277Z,46.43
2018-11-21T04:31:37.704Z,49.63
2018-11-21T04:37:41.112Z,46.53
2018-11-21T04:43:44.534Z,48.53
2018-11-21T06:39:40.934Z,58.87
2018-11-21T06:45:44.346Z,54.17
2018-11-21T06:51:49.908Z,53.07
2018-11-21T06:57:53.330Z,54.37
2018-11-21T07:03:56.900Z,49.67
2018-11-21T07:10:00.229Z,56.13
2018-11-21T07:16:03.694Z,56.17
2018-11-21T07:22:07.135Z,52.83
2018-11-21T07:28:13.166Z,54.40
2018-11-21T07:34:14.228Z,61.97
2018-11-21T07:40:17.677Z,55.53
2018-11-21T07:46:21.104Z,51.90
2018-11-21T07:52:24.609Z,58.77
2018-11-21T07:58:28.012Z,61.70
2018-11-21T08:04:44.628Z,57.70
2018-11-21T08:11:05.905Z,67.83
2018-11-21T08:17:27.056Z,67.43
2018-11-21T08:23:55.394Z,64.23
2018-11-21T08:29:53.090Z,61.77
2018-11-21T08:35:56.490Z,58.17
2018-11-21T08:41:59.916Z,62.30
2018-11-21T08:48:03.599Z,60.27
2018-11-21T08:54:07.013Z,56.20
2018-11-21T09:00:12.305Z,57.37
2018-11-21T09:06:15.880Z,66.50
2018-11-21T09:12:19.350Z,55.57
2018-11-21T09:18:22.766Z,58.80
2018-11-21T09:24:26.374Z,52.23
2018-11-21T09:30:29.970Z,52.90
2018-11-21T09:36:33.427Z,48.03
2018-11-21T09:42:37.062Z,48.90
2018-11-21T09:48:40.473Z,79.30
2018-11-21T09:54:43.914Z,50.40
2018-11-21T10:01:23.993Z,51.57
2018-11-21T10:07:27.435Z,51.60
2018-11-21T10:13:30.905Z,45.90
2018-11-21T10:19:34.382Z,47.73
2018-11-21T10:25:37.852Z,44.10
2018-11-21T10:31:41.262Z,45.60
2018-11-21T10:37:44.714Z,44.87
2018-11-21T10:43:48.682Z,44.13
2018-11-21T10:49:52.146Z,43.53
2018-11-21T10:55:55.920Z,42.30
2018-11-21T11:02:16.993Z,38.97
2018-11-21T11:08:38.200Z,40.93
2018-11-21T11:15:03.470Z,43.47
2018-11-21T11:21:28.714Z,41.73
2018-11-21T11:27:51.284Z,41.07
2018-11-21T11:34:08.882Z,40.17
2018-11-21T11:40:40.712Z,36.67
2018-11-21T11:47:02.175Z,39.70
2018-11-21T11:53:24.760Z,36.07
2018-11-21T11:59:47.341Z,34.17
2018-11-21T12:06:09.088Z,35.73
2018-11-21T12:12:46.871Z,38.30
2018-11-21T12:19:15.355Z,40.07
2018-11-21T12:25:41.053Z,32.77
2018-11-21T12:32:15.575Z,31.37
2018-11-21T12:38:32.101Z,30.73
2018-11-21T12:44:47.667Z,34.53
2018-11-21T12:51:19.340Z,33.27
2018-11-21T12:57:40.813Z,36.10
2018-11-21T13:03:58.636Z,34.40
2018-11-21T13:10:20.190Z,89.17
2018-11-21T13:16:41.517Z,32.67
2018-11-21T13:23:10.277Z,34.93
2018-11-21T13:29:26.850Z,48.37
2018-11-21T13:35:43.090Z,32.27
2018-11-21T13:42:04.857Z,32.63
2018-11-21T13:48:45.571Z,26.73
2018-11-21T13:54:59.180Z,28.30
2018-11-21T14:01:02.633Z,31.63
2018-11-21T14:07:06.946Z,29.80
2018-11-21T14:13:10.412Z,30.20
2018-11-21T14:19:13.888Z,26.70
2018-11-21T14:25:17.361Z,29.40
2018-11-21T14:31:20.798Z,24.93
2018-11-21T14:37:24.312Z,26.80
2018-11-21T14:43:27.755Z,30.13
2018-11-21T14:49:31.180Z,30.17
2018-11-21T14:55:34.796Z,28.30
2018-11-21T15:01:38.227Z,32.43
2018-11-21T15:07:42.512Z,32.90
2018-11-21T15:13:45.950Z,37.07
2018-11-21T15:19:49.527Z,34.00
2018-11-21T15:25:53.024Z,35.43
2018-11-21T15:31:56.480Z,38.43
2018-11-21T15:37:59.918Z,36.53
2018-11-21T15:44:03.375Z,41.57
2018-11-21T15:50:09.629Z,40.50
2018-11-21T15:56:13.071Z,40.53
2018-11-21T16:02:16.499Z,42.43
2018-11-21T16:08:19.936Z,34.77
2018-11-21T16:14:23.539Z,44.33
2018-11-21T16:20:27.071Z,51.63
2018-11-21T16:26:30.597Z,54.07
2018-11-21T16:32:34.037Z,44.57
2018-11-21T16:38:37.483Z,46.47
2018-11-21T16:44:40.930Z,47.03
2018-11-21T16:50:44.879Z,49.57
2018-11-21T16:56:48.393Z,45.43
2018-11-21T17:02:51.889Z,53.90
2018-11-21T17:08:55.438Z,45.70
2018-11-21T17:14:59.027Z,46.20
2018-11-21T17:21:02.548Z,43.17
2018-11-21T17:27:06.246Z,46.20
2018-11-21T17:33:09.734Z,45.20
2018-11-21T17:39:14.587Z,45.50
2018-11-21T17:45:19.492Z,49.57
2018-11-21T17:51:26.582Z,50.57
2018-11-21T17:57:28.065Z,53.87
2018-11-21T18:03:30.437Z,47.40
2018-11-21T18:09:33.985Z,47.20
2018-11-21T18:15:37.452Z,47.90
2018-11-21T18:21:41.186Z,50.30
2018-11-21T18:27:44.896Z,53.63
2018-11-21T18:33:48.404Z,65.80
2018-11-21T18:39:51.968Z,70.63
2018-11-21T18:45:55.493Z,57.00
2018-11-21T18:51:58.996Z,51.20
2018-11-21T18:59:11.597Z,50.67
2018-11-21T19:05:15.068Z,51.97
2018-11-21T19:11:18.651Z,51.77
2018-11-21T19:17:22.201Z,51.13
2018-11-21T19:23:25.741Z,56.07
2018-11-21T19:29:29.282Z,52.70
2018-11-21T19:35:32.869Z,53.73
2018-11-21T19:41:36.351Z,47.57
2018-11-21T19:47:40.038Z,47.73
2018-11-21T19:53:43.635Z,47.67
2018-11-21T19:59:47.218Z,49.80
2018-11-21T20:05:50.759Z,48.50
2018-11-21T20:11:54.588Z,52.47
2018-11-21T20:17:59.593Z,56.50
2018-11-21T20:24:03.236Z,57.67
2018-11-21T20:30:10.173Z,56.77
2018-11-21T20:36:13.677Z,51.60
2018-11-21T20:42:17.201Z,54.10
2018-11-21T20:48:20.929Z,49.37
2018-11-21T20:54:24.586Z,50.17
2018-11-21T21:00:29.352Z,49.53
2018-11-21T21:06:32.880Z,47.13
2018-11-21T21:12:36.398Z,53.97
2018-11-21T21:18:40.015Z,49.33
2018-11-21T21:24:43.541Z,53.73
2018-11-21T21:30:47.031Z,52.13
2018-11-21T21:36:50.632Z,50.93
2018-11-21T21:42:54.190Z,48.87
2018-11-21T21:48:57.691Z,47.40
2018-11-21T21:55:01.202Z,47.90
2018-11-21T22:01:04.727Z,46.50
2018-11-21T22:07:08.275Z,46.27
2018-11-21T22:13:11.758Z,44.20
2018-11-21T22:19:15.341Z,46.10
2018-11-21T22:25:19.119Z,45.90
2018-11-21T22:31:22.582Z,47.20
2018-11-21T22:37:26.097Z,44.60
2018-11-21T22:43:29.683Z,48.07
2018-11-21T22:49:33.268Z,45.87
2018-11-21T22:55:36.787Z,47.03
2018-11-21T23:01:40.225Z,45.03
2018-11-21T23:07:44.330Z,46.03
2018-11-21T23:13:47.813Z,46.67
2018-11-21T23:19:51.281Z,44.30
2018-11-21T23:25:54.761Z,48.90
2018-11-21T23:31:58.230Z,50.07
2018-11-21T23:38:01.743Z,50.20
2018-11-21T23:44:05.461Z,46.10
2018-11-21T23:50:10.411Z,44.10
2018-11-21T23:56:13.895Z,45.60
